createdAt,value
2022-09-03T00:01:55.928Z,100265.00
2022-09-03T00:05:11.815Z,100250.97
2022-09-03T00:08:04.090Z,100243.78
2022-09-03T00:11:09.804Z,100235.00
2022-09-03T00:13:56.895Z,100226.13
2022-09-03T00:17:02.810Z,100229.41
2022-09-03T00:19:59.793Z,100232.34
2022-09-03T00:22:45.181Z,100233.56
2022-09-03T00:25:37.787Z,100229.59
2022-09-03T00:28:36.781Z,100226.41
2022-09-03T00:31:27.529Z,100223.25
2022-09-03T00:34:47.762Z,100227.25
2022-09-03T00:37:38.202Z,100246.53
2022-09-03T00:40:45.761Z,100258.19
2022-09-03T00:43:58.642Z,100269.03
2022-09-03T00:47:06.758Z,100281.88
2022-09-03T00:50:09.791Z,100297.13
2022-09-03T00:53:10.845Z,100292.28
2022-09-03T00:56:24.743Z,100296.28
2022-09-03T00:59:23.740Z,100307.13
2022-09-03T01:02:39.853Z,100292.25
2022-09-03T01:05:28.913Z,100308.75
2022-09-03T01:08:22.822Z,100305.94
2022-09-03T01:11:11.997Z,100312.38
2022-09-03T01:14:16.731Z,100295.53
2022-09-03T01:17:13.729Z,100295.94
2022-09-03T01:20:08.118Z,100291.16
2022-09-03T01:23:11.696Z,100289.97
2022-09-03T01:26:36.741Z,100291.94
2022-09-03T01:29:46.722Z,100290.34
2022-09-03T01:32:46.705Z,100277.09
2022-09-03T01:35:35.259Z,100272.69
2022-09-03T01:38:43.713Z,100281.94
2022-09-03T01:42:20.219Z,100280.31
2022-09-03T01:45:16.729Z,100285.13
2022-09-03T01:48:23.747Z,100281.53
2022-09-03T01:51:35.861Z,100272.28
2022-09-03T01:54:47.735Z,100274.69
2022-09-03T01:57:56.791Z,100261.06
2022-09-03T02:00:49.701Z,100248.22
2022-09-03T02:03:40.840Z,100249.41
2022-09-03T02:06:21.149Z,100239.38
2022-09-03T02:09:07.690Z,100242.16
2022-09-03T02:12:06.675Z,100248.56
2022-09-03T02:14:48.430Z,100247.75
2022-09-03T02:17:35.649Z,100262.16
2022-09-03T02:20:26.657Z,100268.13
2022-09-03T02:23:13.640Z,100279.72
2022-09-03T02:26:09.682Z,100277.31
2022-09-03T02:29:04.652Z,100294.94
2022-09-03T02:31:45.357Z,100301.31
2022-09-03T02:34:31.679Z,100308.09
2022-09-03T02:37:21.650Z,100308.47
2022-09-03T02:40:02.245Z,100318.47
2022-09-03T02:42:48.638Z,100320.03
2022-09-03T02:45:36.635Z,100322.81
2022-09-03T02:48:29.638Z,100318.75
2022-09-03T02:51:14.120Z,100313.13
2022-09-03T02:54:01.614Z,100314.72
2022-09-03T02:56:41.730Z,100319.50
2022-09-03T02:59:29.619Z,100316.22
2022-09-03T03:02:17.705Z,100310.16
2022-09-03T03:05:04.607Z,100308.84
2022-09-03T03:25:49.645Z,100312.19
2022-09-03T03:28:34.069Z,100305.59
2022-09-03T03:31:21.741Z,100296.13
2022-09-03T03:34:09.657Z,100293.50
2022-09-03T03:36:49.762Z,100300.41
2022-09-03T03:39:36.657Z,100305.63
2022-09-03T03:42:16.751Z,100316.41
2022-09-03T03:45:03.695Z,100323.28
2022-09-03T03:47:50.670Z,100314.03
2022-09-03T03:50:37.626Z,100317.63
2022-09-03T03:53:24.629Z,100320.78
2022-09-03T03:56:08.025Z,100316.34
2022-09-03T03:58:55.584Z,100321.16
2022-09-03T04:01:42.651Z,100326.38
2022-09-03T04:04:23.729Z,100326.47
2022-09-03T04:07:10.615Z,100333.72
2022-09-03T04:09:50.779Z,100336.56
2022-09-03T04:12:37.623Z,100332.50
2022-09-03T04:15:24.605Z,100354.94
2022-09-03T04:18:05.521Z,100355.44
2022-09-03T04:20:52.618Z,100375.91
2022-09-03T04:23:51.555Z,100371.13
2022-09-03T04:26:40.624Z,100388.78
2022-09-03T04:29:22.118Z,100392.72
2022-09-03T04:32:27.574Z,100389.09
2022-09-03T04:35:14.586Z,100394.41
2022-09-03T04:38:01.579Z,100388.38
2022-09-03T04:40:41.684Z,100389.09
2022-09-03T04:43:28.558Z,100383.50
2022-09-03T04:46:18.650Z,100387.63
2022-09-03T04:48:59.127Z,100388.09
2022-09-03T04:51:45.571Z,100380.53
2022-09-03T04:54:28.089Z,100389.81
2022-09-03T04:57:16.559Z,100383.81
2022-09-03T05:00:03.587Z,100387.41
2022-09-03T05:02:43.637Z,100388.25
2022-09-03T05:05:30.531Z,100394.72
2022-09-03T05:08:11.339Z,100399.47
2022-09-03T05:11:07.535Z,100397.91
2022-09-03T05:13:54.567Z,100403.50
2022-09-03T05:16:41.769Z,100413.25
2022-09-03T05:19:21.560Z,100421.69
2022-09-03T05:22:01.919Z,100422.50
2022-09-03T05:24:48.500Z,100408.91
2022-09-03T05:27:35.522Z,100418.59
2022-09-03T05:30:16.632Z,100413.69
2022-09-03T05:33:03.529Z,100408.75
2022-09-03T05:35:43.630Z,100430.38
2022-09-03T05:38:30.538Z,100423.38
2022-09-03T05:41:21.510Z,100421.00
2022-09-03T05:44:02.207Z,100429.88
2022-09-03T05:46:48.510Z,100423.88
2022-09-03T05:49:36.497Z,100424.75
2022-09-03T05:52:16.864Z,100435.53
2022-09-03T05:55:03.462Z,100433.13
2022-09-03T05:57:50.520Z,100421.94
2022-09-03T06:00:37.495Z,100431.94
2022-09-03T06:03:17.731Z,100426.25
2022-09-03T06:06:04.497Z,100433.53
2022-09-03T06:08:45.053Z,100432.75
2022-09-03T06:11:37.439Z,100439.50
2022-09-03T06:14:26.467Z,100438.97
2022-09-03T06:17:06.927Z,100443.50
2022-09-03T06:19:53.452Z,100457.84
2022-09-03T06:22:33.904Z,100451.06
2022-09-03T06:25:21.443Z,100455.78
2022-09-03T06:28:02.383Z,100453.53
2022-09-03T06:30:49.507Z,100458.41
2022-09-03T06:33:31.518Z,100458.84
2022-09-03T06:36:20.456Z,100452.84
2022-09-03T06:39:08.464Z,100453.41
2022-09-03T06:41:51.919Z,100451.28
2022-09-03T06:44:46.432Z,100462.47
2022-09-03T06:47:26.569Z,100455.22
2022-09-03T06:50:13.456Z,100455.00
2022-09-03T06:52:58.558Z,100463.78
2022-09-03T06:55:46.405Z,100469.03
2022-09-03T06:58:26.651Z,100470.34
2022-09-03T07:01:15.527Z,100461.56
2022-09-03T07:04:01.067Z,100468.81
2022-09-03T07:06:49.410Z,100469.94
2022-09-03T07:09:29.518Z,100477.94
2022-09-03T07:12:17.406Z,100482.63
2022-09-03T07:15:04.399Z,100496.44
2022-09-03T07:17:51.413Z,100500.16
2022-09-03T07:20:38.493Z,100491.97
2022-09-03T07:23:25.991Z,100501.25
2022-09-03T07:26:15.419Z,100502.38
2022-09-03T07:28:56.675Z,100503.56
2022-09-03T07:31:48.448Z,100505.34
2022-09-03T07:34:29.507Z,100508.38
2022-09-03T07:37:16.390Z,100504.41
2022-09-03T07:39:56.538Z,100510.13
2022-09-03T07:42:46.416Z,100507.66
2022-09-03T07:45:35.371Z,100514.28
2022-09-03T07:48:17.885Z,100531.69
2022-09-03T07:51:06.384Z,100527.84
2022-09-03T07:53:48.822Z,100520.31
2022-09-03T07:56:37.340Z,100521.13
2022-09-03T07:59:18.231Z,100523.44
2022-09-03T08:02:05.368Z,100509.34
2022-09-03T08:04:46.064Z,100507.91
2022-09-03T08:07:32.370Z,100504.56
2022-09-03T08:10:19.348Z,100505.97
2022-09-03T08:13:06.385Z,100510.41
2022-09-03T08:16:03.433Z,100509.06
2022-09-03T08:18:45.067Z,100488.78
2022-09-03T08:21:34.332Z,100485.97
2022-09-03T08:24:21.393Z,100484.41
2022-09-03T08:27:01.871Z,100491.03
2022-09-03T08:29:48.334Z,100487.97
2022-09-03T08:32:28.746Z,100494.06
2022-09-03T08:35:16.357Z,100504.88
2022-09-03T08:38:03.344Z,100496.53
2022-09-03T08:40:46.213Z,100497.38
2022-09-03T08:43:33.303Z,100500.72
2022-09-03T08:46:21.366Z,100512.53
2022-09-03T08:49:08.341Z,100517.84
2022-09-03T08:51:58.308Z,100530.56
2022-09-03T08:54:45.291Z,100541.63
2022-09-03T08:57:34.292Z,100538.38
2022-09-03T09:00:15.690Z,100534.31
2022-09-03T09:03:14.334Z,100536.94
2022-09-03T09:06:28.481Z,100541.84
2022-09-03T09:09:17.273Z,100525.06
2022-09-03T09:12:21.412Z,100524.91
2022-09-03T09:15:01.309Z,100528.47
2022-09-03T09:18:14.296Z,100530.41
2022-09-03T09:21:18.988Z,100531.38
2022-09-03T09:24:18.277Z,100539.94
2022-09-03T09:27:18.312Z,100537.75
2022-09-03T09:30:08.304Z,100539.16
2022-09-03T09:32:48.391Z,100547.41
2022-09-03T09:35:35.287Z,100556.03
2022-09-03T09:38:16.608Z,100542.03
2022-09-03T09:41:06.288Z,100548.88
2022-09-03T09:43:48.119Z,100550.09
2022-09-03T09:46:50.288Z,100547.78
2022-09-03T09:49:52.449Z,100545.22
2022-09-03T09:52:40.274Z,100568.22
2022-09-03T09:55:26.721Z,100581.75
2022-09-03T09:58:17.268Z,100567.72
2022-09-03T10:01:20.281Z,100565.09
2022-09-03T10:04:21.211Z,100555.56
2022-09-03T10:07:10.216Z,100547.28
2022-09-03T10:10:14.250Z,100563.06
2022-09-03T10:13:09.578Z,100572.31
2022-09-03T10:16:05.318Z,100574.75
2022-09-03T10:19:01.260Z,100570.41
2022-09-03T10:21:53.786Z,100581.91
2022-09-03T10:25:03.265Z,100578.69
2022-09-03T10:27:53.254Z,100594.56
2022-09-03T10:30:33.338Z,100598.16
2022-09-03T10:33:34.298Z,100600.50
2022-09-03T10:36:30.220Z,100607.25
2022-09-03T10:39:47.734Z,100611.41
2022-09-03T10:43:06.277Z,100598.91
2022-09-03T10:45:59.217Z,100601.94
2022-09-03T10:48:42.664Z,100596.28
2022-09-03T10:51:36.229Z,100603.22
2022-09-03T10:54:39.186Z,100602.88
2022-09-03T10:57:42.214Z,100604.38
2022-09-03T11:00:24.429Z,100599.19
2022-09-03T11:03:32.192Z,100616.91
2022-09-03T11:06:49.183Z,100615.94
2022-09-03T11:09:32.172Z,100628.19
2022-09-03T11:12:28.219Z,100631.72
2022-09-03T11:15:31.528Z,100626.59
2022-09-03T11:18:32.182Z,100640.25
2022-09-03T11:21:16.808Z,100640.22
2022-09-03T11:24:08.177Z,100636.22
2022-09-03T11:27:03.306Z,100620.78
2022-09-03T11:30:04.198Z,100632.63
2022-09-03T11:32:57.194Z,100625.16
2022-09-03T11:35:41.086Z,100638.38
2022-09-03T11:38:31.173Z,100637.19
2022-09-03T11:41:37.173Z,100629.97
2022-09-03T11:44:19.083Z,100613.88
2022-09-03T11:47:13.144Z,100620.44
2022-09-03T11:50:11.168Z,100621.81
2022-09-03T11:52:51.983Z,100628.56
2022-09-03T11:55:56.201Z,100627.16
2022-09-03T11:58:40.706Z,100641.28
2022-09-03T12:01:27.167Z,100645.00
2022-09-03T12:04:11.290Z,100646.28
2022-09-03T12:07:10.120Z,100643.94
2022-09-03T12:10:11.314Z,100649.66
2022-09-03T12:13:17.158Z,100648.50
2022-09-03T12:16:25.142Z,100650.91
2022-09-03T12:19:20.122Z,100647.69
2022-09-03T12:22:11.122Z,100653.72
2022-09-03T12:25:05.089Z,100656.13
2022-09-03T12:27:53.126Z,100662.53
2022-09-03T12:30:33.300Z,100654.50
2022-09-03T12:33:24.121Z,100656.91
2022-09-03T12:36:12.092Z,100658.53
2022-09-03T12:39:14.510Z,100660.53
2022-09-03T12:42:18.090Z,100656.84
2022-09-03T12:45:22.086Z,100654.09
2022-09-03T12:48:09.117Z,100644.38
2022-09-03T12:54:13.292Z,100657.22
2022-09-03T12:57:07.080Z,100649.19
2022-09-03T12:59:47.175Z,100654.41
2022-09-03T13:02:43.051Z,100655.63
2022-09-03T13:05:34.060Z,100656.84
2022-09-03T13:08:21.740Z,100648.84
2022-09-03T13:11:12.086Z,100663.34
2022-09-03T13:14:06.808Z,100657.72
2022-09-03T13:17:01.155Z,100649.59
2022-09-03T13:19:55.081Z,100677.66
2022-09-03T13:22:57.061Z,100678.91
2022-09-03T13:26:06.992Z,100686.66
2022-09-03T13:29:08.716Z,100694.59
2022-09-03T13:32:06.136Z,100692.69
2022-09-03T13:34:55.850Z,100691.09
2022-09-03T13:37:59.021Z,100701.94
2022-09-03T13:40:50.334Z,100700.78
2022-09-03T13:43:51.029Z,100697.94
2022-09-03T13:46:48.044Z,100707.56
2022-09-03T13:50:21.888Z,100712.34
2022-09-03T13:53:29.054Z,100713.81
2022-09-03T13:56:34.011Z,100703.38
2022-09-03T13:59:26.186Z,100707.25
2022-09-03T14:02:34.065Z,100711.91
2022-09-03T14:05:32.993Z,100709.59
2022-09-03T14:08:35.496Z,100715.09
2022-09-03T14:11:32.984Z,100708.09
2022-09-03T14:14:54.005Z,100716.25
2022-09-03T14:17:47.114Z,100722.19
2022-09-03T14:20:45.977Z,100719.44
2022-09-03T14:23:45.080Z,100729.19
2022-09-03T14:26:39.945Z,100742.13
2022-09-03T14:29:26.990Z,100731.72
2022-09-03T14:32:32.067Z,100727.09
2022-09-03T14:35:33.019Z,100732.50
2022-09-03T14:38:48.003Z,100742.81
2022-09-03T14:41:50.555Z,100741.25
2022-09-03T14:44:49.941Z,100750.44
2022-09-03T14:48:10.960Z,100757.22
2022-09-03T14:50:57.957Z,100747.13
2022-09-03T14:54:09.950Z,100762.38
2022-09-03T14:57:13.421Z,100766.97
2022-09-03T15:00:05.962Z,100755.41
2022-09-03T15:03:13.921Z,100754.47
2022-09-03T15:06:17.077Z,100759.38
2022-09-03T15:09:37.930Z,100771.88
2022-09-03T15:28:34.526Z,100779.53
2022-09-03T15:31:23.100Z,100776.78
2022-09-03T15:34:46.240Z,100778.78
2022-09-03T15:37:32.793Z,100773.81
2022-09-03T15:40:55.172Z,100780.47
2022-09-03T15:43:35.677Z,100781.69
2022-09-03T15:46:47.230Z,100784.31
2022-09-03T15:49:32.047Z,100777.00
2022-09-03T15:52:41.204Z,100779.09
2022-09-03T15:55:49.186Z,100787.94
2022-09-03T15:58:59.170Z,100778.97
2022-09-03T16:01:59.558Z,100780.28
2022-09-03T16:04:54.174Z,100776.06
2022-09-03T16:07:44.158Z,100787.00
2022-09-03T16:10:36.182Z,100771.88
2022-09-03T16:13:51.172Z,100776.00
2022-09-03T16:16:57.161Z,100784.81
2022-09-03T16:19:43.550Z,100788.19
2022-09-03T16:22:36.204Z,100787.78
2022-09-03T16:25:58.167Z,100798.41
2022-09-03T16:29:19.009Z,100798.78
2022-09-03T16:32:23.158Z,100809.38
2022-09-03T16:35:27.856Z,100802.16
2022-09-03T16:38:32.145Z,100800.75
2022-09-03T16:41:30.864Z,100802.47
2022-09-03T16:44:21.113Z,100801.94
2022-09-03T16:47:25.129Z,100810.69
2022-09-03T16:50:43.120Z,100821.88
2022-09-03T16:53:50.185Z,100828.41
2022-09-03T16:57:06.134Z,100827.94
2022-09-03T17:00:02.680Z,100831.91
2022-09-03T17:03:10.101Z,100850.63
2022-09-03T17:06:15.080Z,100859.31
2022-09-03T17:09:11.108Z,100875.44
2022-09-03T17:11:54.382Z,100880.91
2022-09-03T17:15:01.113Z,100880.03
2022-09-03T17:18:36.049Z,100878.75
2022-09-03T17:22:09.057Z,100901.28
2022-09-03T17:25:22.102Z,100904.97
2022-09-03T17:28:24.883Z,100905.56
2022-09-03T17:31:11.152Z,100923.31
2022-09-03T17:34:09.040Z,100918.63
2022-09-03T17:37:19.053Z,100939.25
2022-09-03T17:40:40.212Z,100934.47
2022-09-03T17:43:20.136Z,100935.94
2022-09-03T17:46:22.644Z,100948.81
2022-09-03T17:49:16.095Z,100958.44
2022-09-03T17:52:07.486Z,100965.53
2022-09-03T17:54:59.049Z,100969.31
2022-09-03T17:57:46.928Z,100969.25
2022-09-03T18:00:52.066Z,100974.00
2022-09-03T18:03:45.916Z,100974.81
2022-09-03T18:07:10.042Z,100974.44
2022-09-03T18:10:32.052Z,100978.69
2022-09-03T18:13:23.639Z,100981.47
2022-09-03T18:16:22.090Z,100975.41
2022-09-03T18:19:31.273Z,100970.19
2022-09-03T18:22:36.017Z,100967.69
2022-09-03T18:25:38.912Z,100966.25
2022-09-03T18:28:51.026Z,100972.44
2022-09-03T18:31:49.835Z,100976.75
2022-09-03T18:35:04.004Z,100968.03
2022-09-03T18:38:02.650Z,100969.75
2022-09-03T18:41:50.036Z,100977.88
2022-09-03T18:45:24.339Z,100968.59
2022-09-03T18:48:37.990Z,100974.19
2022-09-03T18:51:52.992Z,100981.19
2022-09-03T18:55:08.267Z,100976.41
2022-09-03T18:58:12.601Z,100985.03
2022-09-03T19:01:30.069Z,100981.47
2022-09-03T19:04:57.844Z,100988.69
2022-09-03T19:08:12.981Z,100993.16
2022-09-03T19:11:24.683Z,100986.75
2022-09-03T19:14:40.957Z,101000.47
2022-09-03T19:18:10.953Z,101002.00
2022-09-03T19:21:46.741Z,101000.28
2022-09-03T19:24:54.973Z,101004.06
2022-09-03T19:28:45.933Z,101009.09
2022-09-03T19:32:12.934Z,101006.03
2022-09-03T19:35:41.945Z,101015.28
2022-09-03T19:38:50.131Z,101021.13
2022-09-03T19:42:09.909Z,101018.19
2022-09-03T19:45:30.508Z,101032.22
2022-09-03T19:49:17.898Z,101025.47
2022-09-03T19:52:41.002Z,101039.09
2022-09-03T19:55:46.833Z,101035.66
2022-09-03T19:58:56.897Z,101035.00
2022-09-03T20:02:07.746Z,101040.28
2022-09-03T21:10:38.789Z,101061.09
2022-09-03T21:13:40.370Z,101061.88
2022-09-03T21:16:51.827Z,101065.38
2022-09-03T21:19:56.778Z,101061.34
2022-09-03T21:22:52.809Z,101072.00
2022-09-03T21:25:45.795Z,101065.63
2022-09-03T21:29:06.938Z,101075.72
2022-09-03T21:32:16.837Z,101080.13
2022-09-03T21:35:08.956Z,101081.91
2022-09-03T21:38:18.787Z,101078.91
2022-09-03T21:41:15.756Z,101085.81
2022-09-03T21:44:10.752Z,101081.94
2022-09-03T21:47:07.779Z,101091.72
2022-09-03T21:49:57.410Z,101084.75
2022-09-03T21:53:23.762Z,101081.75
2022-09-03T21:56:37.154Z,101096.63
2022-09-03T21:59:52.782Z,101089.09
2022-09-03T22:02:42.868Z,101083.56
2022-09-03T22:05:23.890Z,101088.56
2022-09-03T22:08:18.751Z,101083.06
2022-09-03T22:11:29.748Z,101084.72
2022-09-03T22:14:16.913Z,101078.09
2022-09-03T22:17:21.757Z,101085.41
2022-09-03T22:20:03.669Z,101076.84
2022-09-03T22:23:03.722Z,101093.91
2022-09-03T22:26:28.766Z,101082.47
2022-09-03T22:29:16.857Z,101084.69
2022-09-03T22:32:10.739Z,101082.50
2022-09-03T22:35:06.738Z,101095.38
2022-09-03T22:38:19.013Z,101099.34
2022-09-03T22:41:24.737Z,101098.19
2022-09-03T22:44:33.669Z,101094.72
2022-09-03T22:47:39.736Z,101097.97
2022-09-03T22:50:20.705Z,101093.91
2022-09-03T22:53:44.716Z,101096.25
2022-09-03T22:56:32.727Z,101099.25
2022-09-03T22:59:51.714Z,101101.91
2022-09-03T23:02:32.868Z,101093.44
2022-09-03T23:05:50.703Z,101097.41
2022-09-03T23:08:45.419Z,101097.41
2022-09-03T23:11:50.715Z,101098.88
2022-09-03T23:14:43.653Z,101099.94
2022-09-03T23:20:31.707Z,101083.88
2022-09-03T23:23:22.848Z,101088.31
2022-09-03T23:26:29.665Z,101087.06
2022-09-03T23:29:26.215Z,101077.16
2022-09-03T23:32:12.707Z,101073.94
2022-09-03T23:34:59.689Z,101066.25
2022-09-03T23:38:01.683Z,101066.03
2022-09-03T23:40:53.800Z,101075.44
2022-09-03T23:44:12.651Z,101070.56
2022-09-03T23:47:31.633Z,101068.97
2022-09-03T23:50:32.629Z,101059.34
2022-09-03T23:53:37.763Z,101072.38
2022-09-03T23:56:43.586Z,101077.56
2022-09-03T23:59:34.658Z,101079.56
